WEATHER DATA

YESTERDAY
Time Temp. Dewp. Hum. Bar.
00:03 3.2 0.9 85 1025.8
00:13 3.1 1 86 1025.6
00:23 3 1.1 87 1025.5
00:34 3.1 1.3 88 1025.6
00:44 3.1 1.3 88 1025.8
00:53 3 1.2 88 1025.4
01:04 3.1 1.3 88 1025.6
01:14 3.1 1.3 88 1025.4
01:24 3.1 1.3 88 1025.3
01:34 3 1.2 88 1025.3
01:44 2.9 1.1 88 1025.2
01:54 2.8 1 88 1025.2
02:04 2.7 0.9 88 1025
02:14 2.7 0.9 88 1025
02:24 2.6 1 89 1025
02:34 2.6 1 89 1024.8
02:44 2.5 0.9 89 1024.6
02:55 2.6 1.1 90 1024.7
03:05 2.7 1.4 91 1024.7
03:14 2.9 1.6 91 1024.5
03:24 3.1 1.8 91 1024.7
03:35 3.2 1.9 91 1024.7
03:45 3.2 1.9 91 1024.7
03:55 3.2 1.9 91 1024.7
04:05 3.3 2 91 1024.6
04:15 3.2 1.9 91 1024.2
04:25 3.3 2 91 1024.2
04:35 3.4 2.1 91 1024.5
04:50 3.3 1.8 90 1024.5
05:00 3.1 1.6 90 1024.7
05:10 3.1 1.8 91 1024.7
05:21 3.2 2 92 1024.7
05:31 3.4 2.4 93 1024.7
05:40 3.8 2.8 93 1024.7
05:51 3.9 2.9 93 1024.8
06:01 4.1 3.2 94 1025
06:11 4.4 3.5 94 1025
06:21 4.8 4.1 95 1025.1
06:31 5.1 4.4 95 1025.1
06:41 5.5 4.6 94 1025.1
07:02 5.9 4.9 93 1025.1
07:12 6.1 4.9 92 1025.1
07:21 6.2 5 92 1025.1
07:31 6.4 5.2 92 1025.2
07:42 6.6 5.4 92 1025.2
07:52 6.8 5.6 92 1025.1
08:02 7.1 5.9 92 1025.1
08:12 7.3 5.9 91 1025.1
08:22 7.8 6.4 91 1025.1
08:32 8 6.1 88 1025.2
08:42 7.9 6 88 1025
08:53 8.2 6.3 88 1024.9
09:03 8.8 6.8 87 1024.7
09:12 8.9 6.5 85 1024.7
09:22 9 6.4 84 1024.6
09:33 8.9 6.2 83 1024.7
09:43 9.1 6.4 83 1024.4
09:53 9.4 6.5 82 1024.5
10:03 9.6 6.7 82 1024.4
10:13 10.4 7.3 81 1024.2
10:23 11.2 7.5 78 1024.1
10:33 11.7 7 73 1024.1
10:44 12.3 7.6 73 1023.9
10:53 12.6 7.7 72 1023.7
11:03 12.9 7.4 69 1023.6
11:14 13.1 7.5 69 1023.3
11:24 13.1 7.3 68 1023.3
11:33 13.2 7.2 67 1023.4
11:43 13.3 7.3 67 1023.1
11:54 13.6 7.4 66 1023.1
12:04 13.6 6.9 64 1023
12:13 13.5 7.1 65 1023
12:24 13.2 6.8 65 1022.7
12:34 13.1 6.7 65 1022.7
12:44 13.1 6.7 65 1022.5
12:54 13.1 6.7 65 1022.3
13:05 13.1 6.7 65 1022
13:14 13.2 7 66 1021.8
13:24 13.4 7.2 66 1021.7
13:35 13.4 7 65 1021.5
13:45 13.3 7.1 66 1021.2
13:55 13.1 6.9 66 1021.1
14:04 12.9 6.7 66 1020.8
14:15 12.8 6.8 67 1020.8
14:25 12.9 6.3 64 1020.6
14:35 12.9 6 63 1020.6
14:45 12.7 6.3 65 1020.4
14:55 12.3 5.5 63 1020.3
15:20 12.2 6.3 67 1019.6
15:31 12.2 5.8 65 1019.6
15:41 12.2 6 66 1019.5
15:50 12.2 6.3 67 1019.4
16:01 12.1 5.7 65 1019.3
16:11 12 5.6 65 1019.2
16:21 11.7 5.6 66 1019.1
16:31 11.2 5.3 67 1019.2
16:41 10.8 5.1 68 1019.1
16:51 10.4 5 69 1019
17:01 10 4.8 70 1018.9
17:12 9.7 4.7 71 1019
17:22 9.6 4.8 72 1019.1
17:31 9.3 4.5 72 1019
17:41 9.1 4.5 73 1018.8
17:52 8.8 4 72 1018.7
18:02 8.6 4 73 1018.7
18:12 8.4 3.8 73 1018.7
18:22 8.2 3.7 73 1018.5
18:32 7.9 3.6 74 1018.7
18:42 7.7 3.7 76 1018.7
18:52 7.5 3.4 75 1018.7
19:03 7.3 3.4 76 1018.5
19:13 7.1 3.2 76 1018.7
19:22 6.9 3 76 1018.5
19:33 6.5 2.6 76 1018.4
19:43 6.2 2.5 77 1018.4
19:53 6 2.5 78 1018.5
20:03 5.9 2.4 78 1018.3
20:13 5.8 2.3 78 1018.3
20:23 5.8 2.4 79 1018.1
20:33 5.6 2.3 79 1018.1
20:43 5.3 2 79 1017.8
20:54 5 1.8 80 1017.6
21:03 4.8 1.8 81 1017.6
21:13 4.8 2 82 1017.5
21:24 4.7 1.9 82 1017.5
21:34 4.6 1.8 82 1017.4
21:44 4.3 1.5 82 1017.4
21:53 4.2 1.6 83 1017.3
22:04 4.2 1.7 84 1017.1
22:14 4.2 1.6 83 1017
22:24 4.1 1.6 84 1016.6
22:35 3.9 1.4 84 1016.6
22:44 3.9 1.6 85 1016.8
22:54 4 1.7 85 1016.6
23:04 4.1 1.8 85 1016.4
23:15 4.2 2.1 86 1016.1
23:25 4.3 2 85 1016.1
23:34 4.4 2.1 85 1016
23:45 4.5 2.4 86 1016.3
23:55 4.5 2.5 87 1016.2

DAY STATISTIC

2019-03-24
TEMPERATURE
AVERAGE
7.3
HIGH
13.6
11:54
LOW
2.5
02:44
PRESSURE
AVERAGE
1021.9
HIGH
1025.8
00:03
LOW
1016.0
23:34
DEWPOINT
AVERAGE
4.0
HIGH
7.7
10:53
LOW
0.9
00:03
HUMIDITY
AVERAGE
80
HIGH
95
06:21
LOW
63
14:35
TEMPERATURE (°C)
LOW
2.5
HIGH
13.6
AVERAGE
7.3
PRESSURE (hpa)
LOW
1016.0
HIGH
1025.8
AVERAGE
1021.9
DEVICE